Norris Rancho Marino Reserve, California Weather observations

Data are for 10 minute period ending at time listed.
 Day   Time   Solar   Ave.   Ave.  Ave.  Vector  Max.   Baro.   Total    
  of    of     Rad.   Air    Rel.  Wind   Wind   Wind  Press.  Precip.   
Year   Day            Temp.  Hum.  Speed  Dir.   Gust                    
2017   (PST)  Kw/m2    F      %     mph   deg.    mph    mb.     in.     
-------------------------------------------------------------------------
 114   20:20   0.00   52.7    93   12.6   314    17.9   1013.0    0.00 
 114   20:30   0.00   52.6    93    8.4   327    14.4   1012.8    0.00 
 114   20:40   0.00   52.7    93   10.2   327    15.9   1012.9    0.00 
 114   20:50   0.00   52.6    92   10.1   322    16.4   1012.9    0.00 
 114   21:00   0.00   52.4    93   10.0   316    17.3   1012.9    0.00 
 114   21:10   0.00   52.2    93    9.6   314    15.9   1012.9    0.00 
 114   21:20   0.00   51.9    93   10.5   310    15.3   1013.0    0.00 
 114   21:30   0.00   51.9    94   12.2   314    21.5   1013.1    0.00 
 114   21:40   0.00   52.1    94   14.1   313    19.2   1013.1    0.00 
 114   21:50   0.00   52.1    94   14.3   316    20.6   1013.2    0.00 
 114   22:00   0.00   51.8    94   11.8   317    18.8   1013.3    0.00 
 114   22:10   0.00   51.6    94   11.9   318    19.2   1013.2    0.00 
 114   22:20   0.00   51.7    94   13.2   315    19.1   1013.3    0.00 
 114   22:30   0.00   51.8    94   11.7   326    21.2   1013.3    0.00 
 114   22:40   0.00   51.7    94   12.5   321    18.7   1013.4    0.00 
 114   22:50   0.00   51.7    93    8.7   319    15.9   1013.3    0.00 
 114   23:00   0.00   51.5    93    9.2   316    15.1   1013.2    0.00 
 114   23:10   0.00   51.6    93   10.1   322    19.0   1013.2    0.00 
 114   23:20   0.00   51.7    93   12.2   317    18.9   1013.3    0.00 
 114   23:30   0.00   51.7    92   13.3   313    20.4   1013.3    0.00 
 114   23:40   0.00   51.8    92   11.8   312    18.6   1013.4    0.00 
 114   23:50   0.00   51.9    91    8.4   320    14.2   1013.4    0.00 
 115    0:00   0.00   51.9    90    9.0   321    15.9   1013.3    0.00 
 115    0:10   0.00   51.8    90    9.4   316    14.1   1013.4    0.00 
 115    0:20   0.00   51.8    89    9.0   319    15.3   1013.4    0.00 
 115    0:30   0.00   51.7    89    9.0   321    13.7   1013.2    0.00 
 115    0:40   0.00   51.5    89    6.1   332    12.2   1013.1    0.00 
 115    0:50   0.00   50.9    89    3.9   336     5.8   1013.1    0.00 
 115    1:00   0.00   50.0    90    3.4   333     5.3   1013.0    0.00 
 115    1:10   0.00   50.1    91    4.6   333     7.2   1012.8    0.00 
 115    1:20   0.00   50.1    91    4.7   334     7.2   1012.7    0.00 
 115    1:30   0.00   50.4    91    5.5   334     8.0   1012.7    0.00 
 115    1:40   0.00   50.7    90    4.5   341     7.7   1012.7    0.00 
 115    1:50   0.00   50.6    89    8.1   313    15.6   1012.8    0.00 
 115    2:00   0.00   50.8    89   11.8   314    16.8   1012.7    0.00 
 115    2:10   0.00   50.9    89   10.7   315    18.6   1012.7    0.00 
 115    2:20   0.00   50.6    89    6.4   330    11.6   1012.6    0.00 
 115    2:30   0.00   50.4    89    4.4   345     7.1   1012.5    0.00 
 115    2:40   0.00   50.3    89    6.3   335    10.4   1012.4    0.00 
 115    2:50   0.00   50.2    89    4.5   333     7.3   1012.3    0.00 
 115    3:00   0.00   49.8    89    5.0   337    10.1   1012.2    0.00 
 115    3:10   0.00   50.3    88    7.5   324    12.1   1012.2    0.00 
 115    3:20   0.00   50.3    88    6.5   326    11.6   1012.2    0.00 
 115    3:30   0.00   50.2    88    5.9   340     9.2   1012.3    0.00 
 115    3:40   0.00   50.2    87    5.6   334     8.0   1012.2    0.00 
 115    3:50   0.00   50.1    87    5.5   336     8.9   1012.2    0.00 
 115    4:00   0.00   49.8    87    5.3   340     7.0   1012.2    0.00 
 115    4:10   0.00   50.3    86    5.7   336     8.6   1012.2    0.00 
 115    4:20   0.00   50.5    85    5.4   332     8.7   1012.3    0.00 
 115    4:30   0.00   48.8    86    3.3    13     4.2   1012.3    0.00 
 115    4:40   0.00   48.3    89    2.1   350     4.2   1012.4    0.00 
 115    4:50   0.00   47.6    90    1.4    36     3.1   1012.5    0.00 
 115    5:00   0.00   47.4    90    1.4    26     3.5   1012.6    0.00 
 115    5:10   0.00   47.0    91    3.1    22     4.6   1012.8    0.00 
 115    5:20   0.00   46.9    91    2.8    22     4.2   1012.8    0.00 
 115    5:30   0.01   46.6    92    2.4    18     3.4   1012.8    0.00 
 115    5:40   0.01   46.9    92    2.4    53     4.0   1012.8    0.00 
 115    5:50   0.03   47.2    92    3.0   360     5.6   1013.0    0.00 
 115    6:00   0.03   48.6    90    4.1   334     7.5   1013.1    0.00 
 115    6:10   0.04   49.5    87    4.0   320     7.5   1013.1    0.00 
 115    6:20   0.05   50.2    85    4.3   332     7.8   1013.1    0.00 
 115    6:30   0.06   50.2    84    2.2   322     4.5   1013.1    0.00 
 115    6:40   0.11   50.0    86    2.3   324     4.8   1013.2    0.00 
 115    6:50   0.17   51.0    85    3.1   350     5.0   1013.1    0.00 
 115    7:00   0.15   52.7    81    3.4   309     5.7   1013.0    0.00 
 115    7:10   0.16   53.3    81    5.9   305     8.3   1013.2    0.00 
 115    7:20   0.19   53.6    80    6.0   292     7.8   1013.2    0.00 
 115    7:30   0.21   53.7    81    6.0   282     7.6   1013.2    0.00 
 115    7:40   0.36   54.2    80    6.0   290     7.9   1013.5    0.00 
 115    7:50   0.40   55.0    79    5.9   290     7.5   1013.5    0.00 
 115    8:00   0.37   55.1    79    6.6   279     8.1   1013.9    0.00 
 115    8:10   0.43   55.5    77    5.6   279     7.4   1014.1    0.00 
 115    8:20   0.49   55.8    76   10.0   286    14.6   1014.4    0.00 
 115    8:30   0.46   55.8    78   14.4   302    20.7   1014.5    0.00 
 115    8:40   0.40   54.6    81   13.3   309    19.6   1014.5    0.00 
 115    8:50   0.47   55.3    81   12.4   309    17.6   1014.4    0.00 
 115    9:00   0.43   55.1    81   14.0   312    19.8   1014.5    0.00 
 115    9:10   0.55   55.7    80   13.2   311    19.4   1014.7    0.00 
 115    9:20   0.64   56.0    80   14.6   308    20.8   1014.7    0.00 
 115    9:30   0.61   55.9    79   16.2   307    23.1   1014.7    0.00 
 115    9:40   0.65   55.9    80   15.4   306    24.3   1015.0    0.00 
 115    9:50   0.74   56.2    80   15.0   299    22.6   1015.2    0.00 
 115   10:00   0.76   55.5    80   18.8   297    26.6   1015.3    0.00 
 115   10:10   0.81   55.5    79   20.5   297    27.8   1015.3    0.00 
 115   10:20   0.69   55.8    79   19.9   298    26.2   1015.3    0.00 
 115   10:30   0.72   56.0    79   20.0   298    27.9   1015.2    0.00 
 115   10:40   0.85   56.4    79   21.0   297    30.2   1015.3    0.00 
 115   10:50   0.86   56.7    79   20.2   299    27.4   1015.3    0.00 
 115   11:00   0.92   56.8    79   19.5   298    29.7   1015.2    0.00 
 115   11:10   0.88   56.5    79   20.9   298    28.4   1015.0    0.00 
 115   11:20   0.78   56.3    80   20.6   297    27.5   1014.9    0.00 
 115   11:30   0.85   56.2    82   19.5   299    26.5   1014.7    0.00 
 115   11:40   0.94   57.1    81   19.1   300    27.0   1014.7    0.00 
 115   11:50   0.94   57.1    81   19.8   301    27.8   1014.6    0.00 
 115   12:00   0.95   57.7    80   19.4   304    28.8   1014.6    0.00 
 115   12:10   0.96   57.6    80   20.0   303    27.2   1014.7    0.00 
 115   12:20   0.98   57.7    80   21.5   303    30.2   1014.7    0.00 
 115   12:30   1.00   57.8    79   20.6   300    30.1   1014.6    0.00 
 115   12:40   0.85   57.1    79   21.5   299    30.2   1014.6    0.00 
 115   12:50   0.58   56.4    80   20.1   300    29.3   1014.6    0.00 
 115   13:00   0.45   55.3    82   20.2   301    28.9   1014.5    0.00 
 115   13:10   0.85   57.0    81   20.2   302    28.7   1014.5    0.00 
 115   13:20   0.71   56.7    81   18.6   303    26.8   1014.5    0.00 
 115   13:30   0.84   57.7    80   18.0   305    30.9   1014.6    0.00 
 115   13:40   0.85   57.8    79   18.5   304    27.9   1014.6    0.00 
 115   13:50   0.83   57.4    79   18.8   305    25.9   1014.4    0.00 
 115   14:00   0.77   57.6    79   18.6   304    27.3   1014.4    0.00 
 115   14:10   0.78   57.3    79   19.5   298    29.0   1014.5    0.00 
 115   14:20   0.75   56.6    81   22.1   299    30.0   1014.4    0.00 
 115   14:30   0.73   56.5    82   21.2   300    28.4   1014.3    0.00 
 115   14:40   0.66   56.5    82   22.3   302    28.7   1014.1    0.00 
 115   14:50   0.60   56.3    82   19.7   301    27.7   1013.9    0.00 
 115   15:00   0.64   56.6    82   19.0   303    28.8   1013.8    0.00 
 115   15:10   0.58   56.3    83   18.0   303    25.8   1013.8    0.00 
 115   15:20   0.62   56.3    83   19.7   300    27.1   1013.8    0.00 
 115   15:30   0.57   55.8    85   17.9   304    27.5   1013.7    0.00 
 115   15:40   0.48   56.1    84   18.7   303    26.3   1013.8    0.00 
 115   15:50   0.39   55.7    85   16.7   303    24.5   1013.7    0.00 
 115   16:00   0.39   55.4    86   16.7   308    27.5   1013.6    0.00 
 115   16:10   0.44   55.5    85   18.7   306    26.9   1013.5    0.00 
 115   16:20   0.43   55.8    85   18.6   304    26.2   1013.4    0.00 
 115   16:30   0.32   55.4    85   19.7   306    28.2   1013.5    0.00 
 115   16:40   0.34   55.5    85   18.7   310    26.6   1013.4    0.00 
 115   16:50   0.31   55.3    84   19.1   313    26.7   1013.4    0.00 
 115   17:00   0.28   55.3    84   20.8   314    29.3   1013.4    0.00 
 115   17:10   0.30   55.4    84   20.5   305    27.3   1013.2    0.00 
 115   17:20   0.25   55.6    83   17.7   303    28.2   1013.2    0.00 
 115   17:30   0.22   55.3    84   16.8   307    25.0   1013.2    0.00 
 115   17:40   0.14   54.7    85   18.0   314    26.6   1013.3    0.00 
 115   17:50   0.11   54.3    86   16.4   312    25.8   1013.1    0.00 
 115   18:00   0.10   54.0    86   15.3   309    23.4   1013.0    0.00 
 115   18:10   0.06   53.6    87   16.4   309    28.9   1013.1    0.00 
 115   18:20   0.04   53.5    88   16.8   312    26.5   1013.1    0.00 
 115   18:30   0.03   53.3    89   15.0   311    24.8   1013.1    0.00 
 115   18:40   0.02   53.3    89   14.7   316    21.0   1013.1    0.00 
 115   18:50   0.01   53.3    88   12.2   325    20.1   1013.2    0.00 
 115   19:00   0.01   53.3    88   11.3   320    18.3   1013.2    0.00 
 115   19:10   0.00   53.5    87   10.8   323    19.2   1013.3    0.00 
 115   19:20   0.00   53.4    87    8.2   312    10.7   1013.4    0.00 
 115   19:30   0.00   53.3    88    8.4   314    12.7   1013.6    0.00 
 115   19:40   0.00   53.5    87    7.1   318    13.2   1013.8    0.00 
 115   19:50   0.00   53.5    86    8.5   307    14.4   1013.7    0.00 
 115   20:00   0.00   53.1    87    8.9   313    13.2   1013.9    0.00 
 115   20:10   0.00   53.1    87   10.2   315    17.9   1014.3    0.00 

Return to Norris Rancho Marino Reserve graphs page.


Western Regional Climate Center,wrcc@dri.edu